createdAt,value
2018-08-06T00:00:43.456Z,0.63
2018-08-06T00:03:11.864Z,0.77
2018-08-06T00:05:40.671Z,0.60
2018-08-06T00:08:10.000Z,0.67
2018-08-06T00:10:39.260Z,0.70
2018-08-06T00:13:08.419Z,0.60
2018-08-06T00:15:37.492Z,0.70
2018-08-06T00:18:06.719Z,0.53
2018-08-06T00:20:35.771Z,0.70
2018-08-06T00:23:05.229Z,0.80
2018-08-06T00:25:34.228Z,0.63
2018-08-06T00:28:03.249Z,0.70
2018-08-06T00:30:32.088Z,0.70
2018-08-06T00:33:01.841Z,0.70
2018-08-06T00:35:30.839Z,0.60
2018-08-06T00:38:00.212Z,0.80
2018-08-06T00:40:29.303Z,0.60
2018-08-06T00:42:58.345Z,0.83
2018-08-06T00:45:27.292Z,0.80
2018-08-06T00:47:56.532Z,0.77
2018-08-06T00:50:25.444Z,0.70
2018-08-06T00:52:54.779Z,0.90
2018-08-06T00:55:24.135Z,0.80
2018-08-06T00:57:53.372Z,0.90
2018-08-06T01:00:22.407Z,1.00
2018-08-06T01:02:51.531Z,0.90
2018-08-06T01:05:20.256Z,0.80
2018-08-06T01:07:48.783Z,0.63
2018-08-06T01:10:19.752Z,0.80
2018-08-06T01:12:49.099Z,0.70
2018-08-06T01:15:18.780Z,0.70
2018-08-06T01:17:47.624Z,0.80
2018-08-06T01:20:17.405Z,0.80
2018-08-06T01:22:46.247Z,1.10
2018-08-06T01:25:15.995Z,1.20
2018-08-06T01:27:45.304Z,1.53
2018-08-06T01:30:15.169Z,1.63
2018-08-06T01:32:44.348Z,1.50
2018-08-06T01:35:13.212Z,2.10
2018-08-06T01:37:41.595Z,1.60
2018-08-06T01:40:12.391Z,1.70
2018-08-06T01:42:41.388Z,1.30
2018-08-06T01:45:11.149Z,1.70
2018-08-06T01:47:40.270Z,1.17
2018-08-06T01:50:09.553Z,1.20
2018-08-06T01:52:38.492Z,1.10
2018-08-06T01:55:07.270Z,1.40
2018-08-06T01:57:35.932Z,1.20
2018-08-06T02:00:06.659Z,1.20
2018-08-06T02:02:35.688Z,1.30
2018-08-06T02:05:05.564Z,1.10
2018-08-06T02:07:34.856Z,1.10
2018-08-06T02:10:03.828Z,1.00
2018-08-06T02:12:33.112Z,0.80
2018-08-06T02:15:01.984Z,0.70
2018-08-06T02:17:31.215Z,0.97
2018-08-06T02:20:00.383Z,0.70
2018-08-06T02:22:29.304Z,0.60
2018-08-06T02:24:58.813Z,0.60
2018-08-06T02:27:27.783Z,0.70
2018-08-06T02:29:57.550Z,1.00
2018-08-06T02:32:26.700Z,0.70
2018-08-06T02:34:55.389Z,0.60
2018-08-06T02:37:24.191Z,0.73
2018-08-06T02:39:53.168Z,1.03
2018-08-06T02:42:22.544Z,1.03
2018-08-06T02:44:51.534Z,1.13
2018-08-06T02:47:20.608Z,1.47
2018-08-06T02:49:49.623Z,1.10
2018-08-06T02:52:18.315Z,0.87
2018-08-06T02:54:48.124Z,0.80
2018-08-06T02:57:17.135Z,1.10
2018-08-06T02:59:46.495Z,1.63
2018-08-06T03:02:15.727Z,1.23
2018-08-06T03:04:44.496Z,1.03
2018-08-06T03:07:13.695Z,1.60
2018-08-06T03:09:42.984Z,1.20
2018-08-06T03:12:12.198Z,1.03
2018-08-06T03:14:41.231Z,1.20
2018-08-06T03:17:10.388Z,1.20
2018-08-06T03:19:39.435Z,1.10
2018-08-06T03:22:08.445Z,0.90
2018-08-06T03:24:38.054Z,0.77
2018-08-06T03:27:07.479Z,0.77
2018-08-06T03:29:36.464Z,0.80
2018-08-06T03:32:05.717Z,0.80
2018-08-06T03:34:34.715Z,0.90
2018-08-06T03:37:03.632Z,0.90
2018-08-06T03:39:33.016Z,0.80
2018-08-06T03:42:01.808Z,1.30
2018-08-06T03:44:30.804Z,1.13
2018-08-06T03:46:59.813Z,1.40
2018-08-06T03:49:28.779Z,1.20
2018-08-06T03:51:57.307Z,1.20
2018-08-06T03:54:26.414Z,0.90
2018-08-06T03:56:55.720Z,0.90
2018-08-06T03:59:24.436Z,0.77
2018-08-06T04:01:53.697Z,0.90
2018-08-06T04:04:22.576Z,0.97
2018-08-06T04:06:51.883Z,0.80
2018-08-06T04:09:21.851Z,0.80
2018-08-06T04:11:51.214Z,1.13
2018-08-06T04:14:20.475Z,0.80
2018-08-06T04:16:49.915Z,0.83
2018-08-06T04:19:19.244Z,1.10
2018-08-06T04:21:47.975Z,0.77
2018-08-06T04:24:17.745Z,0.80
2018-08-06T04:26:46.645Z,1.00
2018-08-06T04:29:16.184Z,0.77
2018-08-06T04:31:45.436Z,0.90
2018-08-06T04:34:14.335Z,1.20
2018-08-06T04:36:43.331Z,0.80
2018-08-06T04:39:12.386Z,0.83
2018-08-06T04:41:41.592Z,1.03
2018-08-06T04:44:10.655Z,1.07
2018-08-06T04:46:39.827Z,1.10
2018-08-06T04:49:08.563Z,0.90
2018-08-06T04:51:37.541Z,1.13
2018-08-06T04:54:08.008Z,1.00
2018-08-06T04:56:36.748Z,1.07
2018-08-06T04:59:05.557Z,1.10
2018-08-06T05:01:34.739Z,0.80
2018-08-06T05:04:03.844Z,0.80
2018-08-06T05:06:32.899Z,1.27
2018-08-06T05:09:01.833Z,1.10
2018-08-06T05:11:30.928Z,0.80
2018-08-06T05:13:59.671Z,0.87
2018-08-06T05:16:28.559Z,1.00
2018-08-06T05:18:57.331Z,1.20
2018-08-06T05:21:25.944Z,1.00
2018-08-06T05:23:57.347Z,0.80
2018-08-06T05:26:27.660Z,1.00
2018-08-06T05:28:57.083Z,1.33
2018-08-06T05:31:27.311Z,1.23
2018-08-06T05:33:57.296Z,1.40
2018-08-06T05:36:27.579Z,1.80
2018-08-06T05:39:00.063Z,1.30
2018-08-06T05:41:29.035Z,1.33
2018-08-06T05:43:58.339Z,1.07
2018-08-06T05:46:27.575Z,0.70
2018-08-06T05:48:56.736Z,0.70
2018-08-06T05:51:25.703Z,0.67
2018-08-06T05:53:54.731Z,0.93
2018-08-06T05:56:23.445Z,0.80
2018-08-06T05:58:53.291Z,0.80
2018-08-06T06:01:22.459Z,1.13
2018-08-06T06:03:51.484Z,1.53
2018-08-06T06:06:20.748Z,0.83
2018-08-06T06:08:49.739Z,0.57
2018-08-06T06:11:18.794Z,0.70
2018-08-06T06:13:48.851Z,0.70
2018-08-06T06:16:18.067Z,0.67
2018-08-06T06:18:47.088Z,0.80
2018-08-06T06:21:16.064Z,0.60
2018-08-06T06:23:45.363Z,0.60
2018-08-06T06:26:14.004Z,0.73
2018-08-06T06:28:43.493Z,0.87
2018-08-06T06:31:12.764Z,1.20
2018-08-06T06:33:42.279Z,1.77
2018-08-06T06:36:11.227Z,2.00
2018-08-06T06:38:40.009Z,1.70
2018-08-06T06:41:09.237Z,0.87
2018-08-06T06:43:38.304Z,0.67
2018-08-06T06:46:07.796Z,0.70
2018-08-06T06:48:36.823Z,0.60
2018-08-06T06:51:05.919Z,0.70
2018-08-06T06:53:35.072Z,0.60
2018-08-06T06:56:04.379Z,0.70
2018-08-06T06:58:33.775Z,0.93
2018-08-06T07:01:02.928Z,0.50
2018-08-06T07:03:32.089Z,0.63
2018-08-06T07:06:01.104Z,0.70
2018-08-06T07:08:30.036Z,0.70
2018-08-06T07:10:59.044Z,0.60
2018-08-06T07:13:28.080Z,0.50
2018-08-06T07:15:57.093Z,0.50
2018-08-06T07:18:26.077Z,0.50
2018-08-06T07:20:55.789Z,0.53
2018-08-06T07:23:25.155Z,0.60
2018-08-06T07:25:54.041Z,0.50
2018-08-06T07:28:23.387Z,0.83
2018-08-06T07:30:52.687Z,0.77
2018-08-06T07:33:21.695Z,0.50
2018-08-06T07:35:50.996Z,0.60
2018-08-06T07:38:19.967Z,0.70
2018-08-06T07:40:48.992Z,0.70
2018-08-06T07:43:18.035Z,0.70
2018-08-06T07:45:47.083Z,0.60
2018-08-06T07:48:16.210Z,0.57
2018-08-06T07:50:45.455Z,0.60
2018-08-06T07:53:14.041Z,0.60
2018-08-06T07:55:43.388Z,0.47
2018-08-06T07:58:13.376Z,0.70
2018-08-06T08:00:42.060Z,0.60
2018-08-06T08:03:10.535Z,0.70
2018-08-06T08:05:39.584Z,0.60
2018-08-06T08:08:08.228Z,0.60
2018-08-06T08:10:37.507Z,0.60
2018-08-06T08:13:06.576Z,0.53
2018-08-06T08:15:36.684Z,0.60
2018-08-06T08:18:05.588Z,0.50
2018-08-06T08:20:34.483Z,0.60
2018-08-06T08:23:03.127Z,0.70
2018-08-06T08:25:33.112Z,0.50
2018-08-06T08:28:02.089Z,0.50
2018-08-06T08:30:31.100Z,0.50
2018-08-06T08:33:00.089Z,0.53
2018-08-06T08:35:31.801Z,0.60
2018-08-06T08:38:01.769Z,0.50
2018-08-06T08:40:30.955Z,0.57
2018-08-06T08:43:00.319Z,0.43
2018-08-06T08:45:28.781Z,0.50
2018-08-06T08:47:58.636Z,0.50
2018-08-06T08:50:27.577Z,0.60
2018-08-06T08:52:56.543Z,0.57
2018-08-06T08:55:25.697Z,0.60
2018-08-06T08:57:54.687Z,0.50
2018-08-06T09:00:24.316Z,0.60
2018-08-06T09:02:53.605Z,0.60
2018-08-06T09:05:22.321Z,0.60
2018-08-06T09:07:52.084Z,0.57
2018-08-06T09:10:21.891Z,0.50
2018-08-06T09:12:51.314Z,0.50
2018-08-06T09:15:21.041Z,0.70
2018-08-06T09:17:50.353Z,0.67
2018-08-06T09:20:19.760Z,0.50
2018-08-06T09:22:48.891Z,0.60
2018-08-06T09:25:17.988Z,0.50
2018-08-06T09:27:48.222Z,0.67
2018-08-06T09:30:21.887Z,0.50
2018-08-06T09:32:59.087Z,0.50
2018-08-06T09:35:27.914Z,0.60
2018-08-06T09:37:56.898Z,0.60
2018-08-06T09:40:25.990Z,0.50
2018-08-06T09:42:55.801Z,0.63
2018-08-06T09:45:25.165Z,0.57
2018-08-06T09:47:55.315Z,0.50
2018-08-06T09:50:24.407Z,0.70
2018-08-06T09:52:54.202Z,0.60
2018-08-06T09:55:25.123Z,0.50
2018-08-06T09:57:54.163Z,0.70
2018-08-06T10:00:28.453Z,0.50
2018-08-06T10:02:58.628Z,0.60
2018-08-06T10:05:28.062Z,0.60
2018-08-06T10:07:57.152Z,0.60
2018-08-06T10:10:26.491Z,0.60
2018-08-06T10:12:55.415Z,0.50
2018-08-06T10:15:24.192Z,0.60
2018-08-06T10:17:54.734Z,0.50
2018-08-06T10:20:25.012Z,0.70
2018-08-06T10:22:54.065Z,0.57
2018-08-06T10:25:22.627Z,0.60
2018-08-06T10:27:51.546Z,0.60
2018-08-06T10:30:23.069Z,0.60
2018-08-06T10:32:51.917Z,0.70
2018-08-06T10:35:21.404Z,0.60
2018-08-06T10:37:50.115Z,0.60
2018-08-06T10:40:20.687Z,0.70
2018-08-06T10:42:49.945Z,0.60
2018-08-06T10:45:20.951Z,0.70
2018-08-06T10:47:50.382Z,0.70
2018-08-06T10:50:19.369Z,0.60
2018-08-06T10:52:48.581Z,0.60
2018-08-06T10:55:17.899Z,0.68
2018-08-06T10:57:47.271Z,0.60
2018-08-06T11:00:23.509Z,0.80
2018-08-06T11:02:52.917Z,0.80
2018-08-06T11:05:22.267Z,0.70
2018-08-06T11:07:51.367Z,0.60
2018-08-06T11:10:21.959Z,0.50
2018-08-06T11:12:50.948Z,0.70
2018-08-06T11:15:21.156Z,0.68
2018-08-06T11:17:50.191Z,0.60
2018-08-06T11:20:19.968Z,0.65
2018-08-06T11:22:48.933Z,0.60
2018-08-06T11:25:19.217Z,0.60
2018-08-06T11:27:48.386Z,0.55
2018-08-06T11:30:18.563Z,0.55
2018-08-06T11:32:47.993Z,0.65
2018-08-06T11:35:16.971Z,0.60
2018-08-06T11:37:45.879Z,0.60
2018-08-06T11:40:15.479Z,0.60
2018-08-06T11:42:45.135Z,0.60
2018-08-06T11:45:15.523Z,0.62
2018-08-06T11:47:44.537Z,0.57
2018-08-06T11:50:13.571Z,0.53
2018-08-06T11:52:43.044Z,0.70
2018-08-06T11:55:11.996Z,0.80
2018-08-06T11:57:41.056Z,0.70
2018-08-06T12:00:10.727Z,0.50
2018-08-06T12:02:39.854Z,0.57
2018-08-06T12:05:08.769Z,0.60
2018-08-06T12:07:38.135Z,0.60
2018-08-06T12:10:08.071Z,0.60
2018-08-06T12:12:37.211Z,0.68
2018-08-06T12:15:06.642Z,0.70
2018-08-06T12:17:35.815Z,0.60
2018-08-06T12:20:06.770Z,0.60
2018-08-06T12:22:35.843Z,0.80
2018-08-06T12:25:05.855Z,0.60
2018-08-06T12:27:35.124Z,0.95
2018-08-06T12:30:04.028Z,0.57
2018-08-06T12:32:33.385Z,0.60
2018-08-06T12:35:03.548Z,0.70
2018-08-06T12:37:32.320Z,0.50
2018-08-06T12:40:00.988Z,0.80
2018-08-06T12:42:29.384Z,0.60
2018-08-06T12:44:58.719Z,0.70
2018-08-06T12:47:27.431Z,0.60
2018-08-06T12:49:56.327Z,0.60
2018-08-06T12:52:25.326Z,0.95
2018-08-06T12:54:54.321Z,0.80
2018-08-06T12:57:23.313Z,0.82
2018-08-06T12:59:52.217Z,0.60
2018-08-06T13:02:21.345Z,0.70
2018-08-06T13:04:50.393Z,0.70
2018-08-06T13:07:19.362Z,0.60
2018-08-06T13:09:48.710Z,0.57
2018-08-06T13:12:17.762Z,0.75
2018-08-06T13:14:46.804Z,0.60
2018-08-06T13:17:15.243Z,0.75
2018-08-06T13:19:45.013Z,0.70
2018-08-06T13:22:14.043Z,0.60
2018-08-06T13:24:42.896Z,0.80
2018-08-06T13:27:12.724Z,0.70
2018-08-06T13:29:41.633Z,0.80
2018-08-06T13:32:10.422Z,0.60
2018-08-06T13:34:40.307Z,0.60
2018-08-06T13:37:09.427Z,0.75
2018-08-06T13:39:38.352Z,0.72
2018-08-06T13:42:07.328Z,0.90
2018-08-06T13:44:37.223Z,0.80
2018-08-06T13:47:06.172Z,0.60
2018-08-06T13:49:35.515Z,0.85
2018-08-06T13:52:04.435Z,0.60
2018-08-06T13:54:33.668Z,0.70
2018-08-06T13:57:02.415Z,0.70
2018-08-06T13:59:31.190Z,0.62
2018-08-06T14:02:00.506Z,0.80
2018-08-06T14:04:30.417Z,1.42
2018-08-06T14:06:59.867Z,0.60
2018-08-06T14:09:28.828Z,0.70
2018-08-06T14:11:57.791Z,0.68
2018-08-06T14:14:27.228Z,0.65
2018-08-06T14:16:56.306Z,0.80
2018-08-06T14:19:25.229Z,0.70
2018-08-06T14:21:53.772Z,0.60
2018-08-06T14:24:22.067Z,0.70
2018-08-06T14:26:51.374Z,0.53
2018-08-06T14:29:20.870Z,0.60
2018-08-06T14:31:49.798Z,0.80
2018-08-06T14:34:18.650Z,0.70
2018-08-06T14:36:48.072Z,0.60
2018-08-06T14:39:17.012Z,0.70
2018-08-06T14:41:45.956Z,0.60
2018-08-06T14:44:16.532Z,0.70
2018-08-06T14:46:45.540Z,0.70
2018-08-06T14:49:14.551Z,0.60
2018-08-06T14:51:43.821Z,0.65
2018-08-06T14:54:13.648Z,1.02
2018-08-06T14:56:42.360Z,0.70
2018-08-06T14:59:11.847Z,0.60
2018-08-06T15:01:40.517Z,0.60
2018-08-06T15:04:09.948Z,0.53
2018-08-06T15:06:39.526Z,0.80
2018-08-06T15:09:10.719Z,0.60
2018-08-06T15:11:39.935Z,0.45
2018-08-06T15:14:09.933Z,0.80
2018-08-06T15:16:39.635Z,0.78
2018-08-06T15:19:09.215Z,0.70
2018-08-06T15:21:38.356Z,0.72
2018-08-06T15:24:07.676Z,0.53
2018-08-06T15:26:36.573Z,0.80
2018-08-06T15:29:06.327Z,0.60
2018-08-06T15:31:35.741Z,0.98
2018-08-06T15:34:05.200Z,0.70
2018-08-06T15:36:34.792Z,0.70
2018-08-06T15:39:05.799Z,0.60
2018-08-06T15:41:34.895Z,0.60
2018-08-06T15:44:04.516Z,0.62
2018-08-06T15:46:33.504Z,0.70
2018-08-06T15:49:02.404Z,0.70
2018-08-06T15:51:32.313Z,0.70
2018-08-06T15:54:01.669Z,0.70
2018-08-06T15:56:31.041Z,0.70
2018-08-06T15:59:00.369Z,0.60
2018-08-06T16:01:29.316Z,0.60
2018-08-06T16:03:58.570Z,0.70
2018-08-06T16:06:27.680Z,0.75
2018-08-06T16:08:56.664Z,0.82
2018-08-06T16:11:25.899Z,0.80
2018-08-06T16:13:55.405Z,0.60
2018-08-06T16:16:24.140Z,0.70
2018-08-06T16:18:53.476Z,0.88
2018-08-06T16:21:22.008Z,0.70
2018-08-06T16:23:51.289Z,0.80
2018-08-06T16:26:20.567Z,0.90
2018-08-06T16:28:49.651Z,0.75
2018-08-06T16:31:18.387Z,0.80
2018-08-06T16:33:47.688Z,0.70
2018-08-06T16:36:16.972Z,0.88
2018-08-06T16:38:46.481Z,0.60
2018-08-06T16:41:16.088Z,0.68
2018-08-06T16:43:45.417Z,0.65
2018-08-06T16:46:14.447Z,0.90
2018-08-06T16:48:43.343Z,0.80
2018-08-06T16:51:12.652Z,0.80
2018-08-06T16:53:41.691Z,0.80
2018-08-06T16:56:11.327Z,0.82
2018-08-06T16:58:40.251Z,0.80
2018-08-06T17:01:09.605Z,0.80
2018-08-06T17:03:38.380Z,0.78
2018-08-06T17:06:07.955Z,1.00
2018-08-06T17:08:37.007Z,0.70
2018-08-06T17:11:06.615Z,0.70
2018-08-06T17:13:35.214Z,0.85
2018-08-06T17:16:05.249Z,0.80
2018-08-06T17:18:34.757Z,0.70
2018-08-06T17:21:04.064Z,0.80
2018-08-06T17:23:32.980Z,0.80
2018-08-06T17:26:02.986Z,0.60
2018-08-06T17:28:32.843Z,0.70
2018-08-06T17:31:02.080Z,0.70
2018-08-06T17:33:31.444Z,0.70
2018-08-06T17:36:00.413Z,0.80
2018-08-06T17:38:29.204Z,0.50
2018-08-06T17:40:58.379Z,1.07
2018-08-06T17:43:27.787Z,0.60
2018-08-06T17:45:56.595Z,0.60
2018-08-06T17:48:25.835Z,0.72
2018-08-06T17:50:54.840Z,0.80
2018-08-06T17:53:23.888Z,0.80
2018-08-06T17:55:53.215Z,0.90
2018-08-06T17:58:22.285Z,0.60
2018-08-06T18:00:51.167Z,0.72
2018-08-06T18:03:20.268Z,1.03
2018-08-06T18:05:49.085Z,1.00
2018-08-06T18:08:17.860Z,0.82
2018-08-06T18:10:46.888Z,0.80
2018-08-06T18:13:15.754Z,0.70
2018-08-06T18:15:45.769Z,0.60
2018-08-06T18:18:15.048Z,0.90
2018-08-06T18:20:44.036Z,0.83
2018-08-06T18:23:14.399Z,0.70
2018-08-06T18:25:43.608Z,0.75
2018-08-06T18:28:13.441Z,0.90
2018-08-06T18:30:42.695Z,1.00
2018-08-06T18:33:12.151Z,0.90
2018-08-06T18:35:41.145Z,0.80
2018-08-06T18:38:10.022Z,0.80
2018-08-06T18:40:39.246Z,0.80
2018-08-06T18:43:08.491Z,0.90
2018-08-06T18:45:38.344Z,0.80
2018-08-06T18:48:07.388Z,0.98
2018-08-06T18:50:36.472Z,1.00
2018-08-06T18:53:06.258Z,0.90
2018-08-06T18:55:35.255Z,0.90
2018-08-06T18:58:04.260Z,0.90
2018-08-06T19:00:33.859Z,0.80
2018-08-06T19:03:03.811Z,1.07
2018-08-06T19:05:32.788Z,1.00
2018-08-06T19:08:01.493Z,0.90
2018-08-06T19:10:30.411Z,1.00
2018-08-06T19:13:04.360Z,0.90
2018-08-06T19:15:33.443Z,1.00
2018-08-06T19:18:07.648Z,1.07
2018-08-06T19:20:36.280Z,0.87
2018-08-06T19:23:05.298Z,1.00
2018-08-06T19:25:35.263Z,0.90
2018-08-06T19:28:07.185Z,0.88
2018-08-06T19:30:41.179Z,0.90
2018-08-06T19:33:10.168Z,1.00
2018-08-06T19:35:39.680Z,1.13
2018-08-06T19:38:08.415Z,1.25
2018-08-06T19:40:37.184Z,1.00
2018-08-06T19:43:12.143Z,1.30
2018-08-06T19:45:41.407Z,0.90
2018-08-06T19:48:10.512Z,1.17
2018-08-06T19:50:41.645Z,1.00
2018-08-06T19:53:10.816Z,1.05
2018-08-06T19:55:44.628Z,0.83
2018-08-06T19:58:13.369Z,0.80
2018-08-06T20:00:42.656Z,0.98
2018-08-06T20:03:11.984Z,1.00
2018-08-06T20:05:40.956Z,1.10
2018-08-06T20:08:10.001Z,0.90
2018-08-06T20:10:39.268Z,1.03
2018-08-06T20:13:08.259Z,1.20
2018-08-06T20:15:37.143Z,1.00
2018-08-06T20:18:06.220Z,1.10
2018-08-06T20:20:36.163Z,0.80
2018-08-06T20:23:05.364Z,0.98
2018-08-06T20:25:34.776Z,0.90
2018-08-06T20:28:03.896Z,1.10
2018-08-06T20:30:33.097Z,0.82
2018-08-06T20:33:02.695Z,0.93
2018-08-06T20:35:31.756Z,0.90
2018-08-06T20:38:00.484Z,1.00
2018-08-06T20:40:30.167Z,0.90
2018-08-06T20:42:59.232Z,0.85
2018-08-06T20:45:28.939Z,0.83
2018-08-06T20:47:58.567Z,0.90
2018-08-06T20:50:27.735Z,0.97
2018-08-06T20:52:57.022Z,1.03
2018-08-06T20:55:25.768Z,0.70
2018-08-06T20:57:54.924Z,1.03
2018-08-06T21:00:24.901Z,0.90
2018-08-06T21:02:54.133Z,1.40
2018-08-06T21:05:23.151Z,0.80
2018-08-06T21:07:52.274Z,0.80
2018-08-06T21:10:21.371Z,1.07
2018-08-06T21:12:50.389Z,0.93
2018-08-06T21:15:19.684Z,1.00
2018-08-06T21:17:48.391Z,0.80
2018-08-06T21:20:18.409Z,0.90
2018-08-06T21:22:48.266Z,0.90
2018-08-06T21:25:17.511Z,0.90
2018-08-06T21:27:47.529Z,0.80
2018-08-06T21:30:18.869Z,0.83
2018-08-06T21:32:50.500Z,0.80
2018-08-06T21:35:20.619Z,0.77
2018-08-06T21:37:50.661Z,0.90
2018-08-06T21:40:19.782Z,0.70
2018-08-06T21:42:48.976Z,0.80
2018-08-06T21:45:18.040Z,0.70
2018-08-06T21:47:48.119Z,1.00
2018-08-06T21:50:17.339Z,1.13
2018-08-06T21:52:46.304Z,0.83
2018-08-06T21:55:15.514Z,0.87
2018-08-06T21:57:45.179Z,0.70
2018-08-06T22:00:19.828Z,0.80
2018-08-06T22:02:48.797Z,0.70
2018-08-06T22:05:17.597Z,0.73
2018-08-06T22:07:46.640Z,0.90
2018-08-06T22:10:15.610Z,0.90
2018-08-06T22:12:44.716Z,0.90
2018-08-06T22:15:14.044Z,1.10
2018-08-06T22:17:43.170Z,0.70
2018-08-06T22:20:12.340Z,0.80
2018-08-06T22:22:40.989Z,0.80
2018-08-06T22:25:09.892Z,0.80
2018-08-06T22:27:38.739Z,0.70
2018-08-06T22:30:08.355Z,0.80
2018-08-06T22:32:37.531Z,0.80
2018-08-06T22:35:06.881Z,0.70
2018-08-06T22:37:36.303Z,0.90
2018-08-06T22:40:05.506Z,0.80
2018-08-06T22:42:34.774Z,0.70
2018-08-06T22:45:04.557Z,1.00
2018-08-06T22:47:33.641Z,0.80
2018-08-06T22:50:04.002Z,0.90
2018-08-06T22:52:32.865Z,0.80
2018-08-06T22:55:02.250Z,0.80
2018-08-06T22:57:31.168Z,0.80
2018-08-06T23:00:00.340Z,1.10
2018-08-06T23:02:29.284Z,0.77
2018-08-06T23:04:58.262Z,1.27
2018-08-06T23:07:27.183Z,0.80
2018-08-06T23:09:56.534Z,0.87
2018-08-06T23:12:25.663Z,0.90
2018-08-06T23:14:54.359Z,0.80
2018-08-06T23:17:23.674Z,0.80
2018-08-06T23:19:52.799Z,0.83
2018-08-06T23:22:21.895Z,0.80
2018-08-06T23:24:51.275Z,0.90
2018-08-06T23:27:20.551Z,0.80
2018-08-06T23:29:49.744Z,1.10
2018-08-06T23:32:18.444Z,0.83
2018-08-06T23:34:47.435Z,0.90
2018-08-06T23:37:16.175Z,1.00
2018-08-06T23:39:45.382Z,1.13
2018-08-06T23:42:14.667Z,1.10
2018-08-06T23:44:43.491Z,1.10
2018-08-06T23:47:12.240Z,1.10
2018-08-06T23:49:41.371Z,0.90
2018-08-06T23:52:10.620Z,1.00
2018-08-06T23:54:39.518Z,1.00
2018-08-06T23:57:08.148Z,0.90
2018-08-06T23:59:37.343Z,0.90
